Time;durP1;ratioP1;P1;durP2;ratioP2;P2;SDS_P1;SDS_P2;PMS_P1;PMS_P2;Temp;Humidity;BMP_temperature;BMP_pressure;BME280_temperature;BME280_humidity;BME280_pressure;Samples;Min_cycle;Max_cycle;Signal;HPM_P1;HPM_P2
2023/04/22 00:01:43;;;;;;;19.15;5.03;;;;;;;20.56;49.84;98096.63;4835585;29;20054;-66
2023/04/22 00:04:13;;;;;;;15.13;4.85;;;;;;;20.51;49.53;98096.63;4830402;29;20053;-66
2023/04/22 00:06:44;;;;;;;15.18;5.07;;;;;;;20.53;49.00;98113.31;4818898;29;20062;-65
2023/04/22 00:09:13;;;;;;;12.57;4.65;;;;;;;20.57;49.22;98109.81;4834588;29;20062;-64
2023/04/22 00:11:43;;;;;;;15.10;4.88;;;;;;;20.53;48.39;98119.47;4835808;29;20080;-67
2023/04/22 00:14:12;;;;;;;14.23;4.60;;;;;;;20.60;50.18;98135.34;4833338;29;20137;-68
2023/04/22 00:16:41;;;;;;;13.75;5.40;;;;;;;20.50;49.05;98136.16;4836494;29;20058;-64
2023/04/22 00:19:11;;;;;;;15.48;4.90;;;;;;;20.60;49.46;98146.13;4834979;29;20391;-69
2023/04/22 00:21:41;;;;;;;12.60;5.35;;;;;;;20.60;49.93;98146.13;4836538;29;20053;-64
2023/04/22 00:24:10;;;;;;;16.33;5.72;;;;;;;20.56;50.24;98145.84;4835771;29;20060;-64
2023/04/22 00:26:40;;;;;;;14.88;6.25;;;;;;;20.48;51.14;98157.16;4836233;29;20148;-65
2023/04/22 00:29:09;;;;;;;16.48;6.45;;;;;;;20.56;48.62;98166.56;4836363;29;20057;-64
2023/04/22 00:31:38;;;;;;;19.02;6.32;;;;;;;20.50;49.70;98168.44;4832246;29;20119;-66
2023/04/22 00:34:07;;;;;;;13.50;5.97;;;;;;;20.49;50.08;98176.81;4819293;29;20098;-65
2023/04/22 00:36:37;;;;;;;13.82;6.40;;;;;;;20.47;49.58;98182.44;4819381;29;20108;-66
2023/04/22 00:39:06;;;;;;;18.15;6.95;;;;;;;20.56;49.21;98188.91;4817906;29;20114;-64
2023/04/22 00:41:35;;;;;;;25.20;8.02;;;;;;;20.51;49.24;98186.22;4817998;29;20203;-64
2023/04/22 00:44:10;;;;;;;19.52;7.20;;;;;;;20.78;48.11;98201.28;4835903;29;20045;-64
2023/04/22 00:46:40;;;;;;;18.58;7.05;;;;;;;20.76;48.29;98209.59;4819863;29;20056;-64
2023/04/22 00:49:09;;;;;;;17.48;6.90;;;;;;;20.68;48.98;98217.41;4819700;29;20057;-64
2023/04/22 00:51:39;;;;;;;11.65;6.00;;;;;;;20.72;49.97;98221.19;4819849;29;20050;-64
2023/04/22 00:54:08;;;;;;;15.88;5.93;;;;;;;20.74;49.52;98227.91;4819261;29;20057;-64
2023/04/22 00:56:38;;;;;;;22.55;5.90;;;;;;;20.69;49.79;98243.25;4820185;29;20046;-66
2023/04/22 00:59:09;;;;;;;20.20;5.40;;;;;;;20.68;49.85;98249.69;4819649;29;20057;-67
2023/04/22 01:01:39;;;;;;;14.55;5.50;;;;;;;20.73;49.53;98268.53;4819684;29;20502;-63
2023/04/22 01:04:11;;;;;;;15.40;5.50;;;;;;;20.81;49.90;98270.69;4835541;29;20407;-65
2023/04/22 01:07:44;;;;;;;12.25;6.30;;;;;;;20.83;49.36;98279.31;4836274;29;20125;-64
2023/04/22 01:12:14;;;;;;;21.25;7.15;;;;;;;20.85;49.37;98279.84;4832282;29;20387;-64
2023/04/22 01:16:44;;;;;;;19.05;7.47;;;;;;;20.78;49.79;98306.25;4805472;29;20663;-63
2023/04/22 01:21:15;;;;;;;21.10;8.35;;;;;;;20.77;50.86;98361.13;4816446;29;20070;-64
2023/04/22 01:24:42;;;;;;;25.70;7.95;;;;;;;20.66;48.42;98348.75;4800605;29;20140;-66
2023/04/22 01:27:12;;;;;;;20.83;7.35;;;;;;;20.60;47.78;98421.38;4803790;29;20073;-69
2023/04/22 01:30:40;;;;;;;23.42;7.72;;;;;;;20.57;48.09;98418.41;4833336;29;20166;-65
2023/04/22 01:34:09;;;;;;;17.00;6.47;;;;;;;20.61;47.93;98414.94;4829052;29;20053;-64
2023/04/22 01:37:37;;;;;;;15.60;5.00;;;;;;;20.57;46.99;98437.25;4820105;29;20087;-64
2023/04/22 01:41:05;;;;;;;18.88;5.80;;;;;;;20.57;46.96;98429.19;4834606;29;20078;-64
2023/04/22 01:44:13;;;;;;;13.02;4.32;;;;;;;20.61;47.13;98433.78;4833246;29;20498;-66
2023/04/22 01:46:50;;;;;;;14.32;4.00;;;;;;;20.70;47.57;98449.41;4814912;29;20061;-63
2023/04/22 01:49:19;;;;;;;21.48;4.90;;;;;;;20.79;46.50;98456.72;4830694;29;20153;-64
2023/04/22 01:52:47;;;;;;;24.25;3.83;;;;;;;20.92;45.99;98468.88;4828063;29;20140;-64
2023/04/22 01:56:15;;;;;;;10.63;2.92;;;;;;;20.87;45.07;98453.50;4834035;29;20905;-65
2023/04/22 01:59:44;;;;;;;13.82;2.90;;;;;;;21.11;46.73;98475.38;4824222;29;20048;-68
2023/04/22 02:03:12;;;;;;;15.15;3.17;;;;;;;21.19;45.19;98504.53;4830426;29;20415;-64
2023/04/22 02:06:39;;;;;;;19.63;3.45;;;;;;;21.26;45.71;98513.16;4830588;29;20450;-69
2023/04/22 02:09:09;;;;;;;27.75;4.90;;;;;;;21.30;45.98;98521.50;4814571;29;20046;-66
2023/04/22 02:12:10;;;;;;;15.75;3.72;;;;;;;21.34;45.78;98534.19;4831121;29;20772;-64
2023/04/22 02:14:40;;;;;;;18.13;3.63;;;;;;;21.38;46.19;98535.25;4833447;29;20054;-65
2023/04/22 02:17:10;;;;;;;15.88;3.40;;;;;;;21.41;46.17;98540.13;4829287;29;20054;-67
2023/04/22 02:20:37;;;;;;;31.55;3.10;;;;;;;21.37;46.43;98525.59;4825328;29;20130;-65
2023/04/22 02:24:05;;;;;;;30.63;3.78;;;;;;;21.38;47.23;98499.41;4830136;29;20084;-64
2023/04/22 02:27:32;;;;;;;31.55;3.33;;;;;;;21.30;47.09;98498.06;4802847;29;20114;-68
2023/04/22 02:30:53;;;;;;;23.35;2.72;;;;;;;21.22;48.63;98477.06;4810055;29;20057;-64
2023/04/22 02:33:23;;;;;;;27.63;2.70;;;;;;;21.19;48.61;98466.00;4816339;29;20058;-64
2023/04/22 02:35:53;;;;;;;27.98;2.80;;;;;;;21.16;49.03;98453.06;4817919;29;20535;-65
2023/04/22 02:39:20;;;;;;;26.60;2.67;;;;;;;21.12;48.36;98452.75;4827317;29;20718;-65
2023/04/22 02:42:48;;;;;;;18.88;2.35;;;;;;;21.14;48.60;98450.66;4810136;29;20736;-65
2023/04/22 02:46:15;;;;;;;17.15;2.55;;;;;;;21.21;48.14;98463.84;4822465;29;20123;-64
2023/04/22 02:49:43;;;;;;;24.30;2.30;;;;;;;21.21;49.27;98467.34;4830334;29;20122;-65
2023/04/22 02:52:14;;;;;;;23.30;2.13;;;;;;;21.30;47.37;98471.13;4830120;29;20144;-64
2023/04/22 02:54:44;;;;;;;10.48;1.60;;;;;;;21.49;44.87;98466.03;4825755;29;20130;-65
2023/04/22 02:58:11;;;;;;;20.75;2.10;;;;;;;21.68;44.23;98471.72;4828859;29;20041;-63
2023/04/22 03:00:41;;;;;;;14.00;1.75;;;;;;;21.81;43.61;98468.47;4813326;29;20049;-64
2023/04/22 03:03:42;;;;;;;6.07;1.20;;;;;;;21.90;44.27;98466.84;4807549;29;20785;-67
2023/04/22 03:06:39;;;;;;;6.43;1.20;;;;;;;21.97;42.29;98397.28;4826069;29;20160;-64
2023/04/22 03:09:08;;;;;;;5.70;1.25;;;;;;;22.02;47.37;98345.22;4805651;29;20058;-65
2023/04/22 03:11:38;;;;;;;9.70;1.23;;;;;;;22.03;48.98;98320.69;4792867;29;20058;-64
2023/04/22 03:14:08;;;;;;;1.95;0.70;;;;;;;22.35;39.06;98285.16;4827074;29;20041;-65
2023/04/22 03:16:38;;;;;;;4.82;1.05;;;;;;;22.53;44.85;98294.50;4827833;29;20058;-64
2023/04/22 03:19:08;;;;;;;9.88;1.40;;;;;;;22.43;47.50;98313.47;4816914;29;20697;-65
2023/04/22 03:21:37;;;;;;;5.50;1.60;;;;;;;22.24;48.29;98334.88;4811538;29;20050;-66
2023/04/22 03:24:08;;;;;;;10.68;2.28;;;;;;;22.15;47.97;98345.44;4821461;29;20725;-64
2023/04/22 03:26:42;;;;;;;14.48;1.90;;;;;;;21.95;48.67;98359.78;4812049;29;20058;-64
2023/04/22 03:29:12;;;;;;;6.80;1.90;;;;;;;21.90;49.78;98359.81;4814051;29;20146;-66
2023/04/22 03:31:42;;;;;;;7.50;1.90;;;;;;;22.05;49.94;98352.75;4813332;29;20054;-63
2023/04/22 03:34:12;;;;;;;13.60;2.40;;;;;;;22.12;49.69;98353.28;4809553;29;20042;-63
2023/04/22 03:36:42;;;;;;;10.48;2.45;;;;;;;22.35;49.53;98360.72;4813402;29;20046;-65
2023/04/22 03:39:12;;;;;;;13.68;2.75;;;;;;;22.84;49.96;98358.06;4813199;29;20064;-66
2023/04/22 03:41:44;;;;;;;18.45;2.85;;;;;;;23.27;48.46;98357.22;4814078;29;20050;-65
2023/04/22 03:44:13;;;;;;;12.05;1.98;;;;;;;23.53;46.71;98365.13;4826559;29;20180;-64
2023/04/22 03:46:44;;;;;;;12.95;2.35;;;;;;;23.96;45.29;98353.31;4828964;29;20057;-65
2023/04/22 03:49:19;;;;;;;9.85;1.92;;;;;;;24.41;42.09;98340.34;4809501;29;20046;-64
2023/04/22 03:51:49;;;;;;;12.40;1.60;;;;;;;24.77;40.55;98352.31;4824818;29;20054;-63
2023/04/22 03:54:22;;;;;;;;;;;;;;;25.21;39.97;98343.00;4812909;29;20056;-67
2023/04/22 03:56:52;;;;;;;11.43;2.10;;;;;;;25.45;39.55;98343.66;4799252;29;19924;-67
2023/04/22 03:59:23;;;;;;;6.65;2.17;;;;;;;25.35;38.00;98346.56;4833064;29;20145;-68
2023/04/22 04:01:53;;;;;;;6.60;2.17;;;;;;;25.56;40.15;98347.84;4815752;29;20042;-67
2023/04/22 04:05:21;;;;;;;5.63;2.38;;;;;;;25.61;39.93;98342.34;4830690;29;20109;-67
2023/04/22 04:07:51;;;;;;;4.15;2.50;;;;;;;25.54;39.76;98350.03;4828740;29;20452;-67
2023/04/22 04:10:20;;;;;;;5.32;2.08;;;;;;;25.74;37.93;98343.47;4827782;29;20124;-64
2023/04/22 04:12:52;;;;;;;5.00;2.22;;;;;;;25.84;38.15;98344.09;4809335;29;20130;-67
2023/04/22 04:15:24;;;;;;;5.70;1.83;;;;;;;25.89;39.99;98349.38;4811660;29;20165;-64
2023/04/22 04:17:55;;;;;;;10.15;1.92;;;;;;;25.56;39.96;98344.34;4819814;29;20057;-65
2023/04/22 04:20:27;;;;;;;12.20;2.08;;;;;;;25.55;42.23;98348.94;4832622;29;20053;-64
2023/04/22 04:22:56;;;;;;;8.07;2.28;;;;;;;25.56;41.61;98345.13;4801718;29;20089;-67
2023/04/22 04:25:29;;;;;;;9.50;3.03;;;;;;;25.79;43.19;98360.47;4830961;29;20058;-64
2023/04/22 04:28:13;;;;;;;10.05;2.03;;;;;;;25.79;43.67;98351.50;4833687;29;20057;-64
2023/04/22 04:30:42;;;;;;;10.50;2.10;;;;;;;25.49;39.33;98356.31;4819301;29;20058;-66
2023/04/22 04:33:43;;;;;;;11.15;2.22;;;;;;;25.32;39.57;98350.66;4829112;29;20066;-67
2023/04/22 04:36:14;;;;;;;7.25;2.20;;;;;;;25.34;41.06;98350.38;4808595;29;20050;-66
2023/04/22 04:39:28;;;;;;;12.05;2.33;;;;;;;25.54;42.91;98350.03;4812180;29;20050;-66
2023/04/22 04:41:59;;;;;;;11.55;2.60;;;;;;;25.35;41.74;98358.22;4804536;29;20086;-66
2023/04/22 04:44:32;;;;;;;12.48;2.38;;;;;;;25.24;43.11;98369.50;4820824;29;20150;-68
2023/04/22 04:47:04;;;;;;;15.52;2.50;;;;;;;25.25;42.70;98371.13;4810900;29;20097;-68
2023/04/22 04:49:42;;;;;;;7.50;2.33;;;;;;;25.30;41.42;98365.63;4826576;29;20038;-66
2023/04/22 04:52:15;;;;;;;12.02;2.60;;;;;;;25.32;40.39;98377.78;4835387;29;20923;-65
2023/04/22 04:54:44;;;;;;;15.00;2.83;;;;;;;25.30;39.31;98382.69;4825324;29;20042;-67
2023/04/22 04:57:17;;;;;;;13.10;3.03;;;;;;;25.33;39.20;98389.44;4809259;29;20055;-68
2023/04/22 04:59:48;;;;;;;9.20;2.95;;;;;;;25.42;39.53;98402.03;4811330;29;20515;-68
2023/04/22 05:02:18;;;;;;;11.70;3.60;;;;;;;25.48;40.77;98410.88;4820076;29;20150;-68
2023/04/22 05:04:48;;;;;;;17.23;4.25;;;;;;;25.61;41.50;98415.56;4833026;29;20508;-68
2023/04/22 05:07:25;;;;;;;18.08;2.92;;;;;;;25.50;39.26;98414.09;4812882;29;20074;-69
2023/04/22 05:09:56;;;;;;;14.18;2.78;;;;;;;25.48;41.62;98411.69;4828190;29;20433;-64
2023/04/22 05:12:26;;;;;;;24.58;3.40;;;;;;;25.52;42.16;98416.50;4808808;29;20061;-64
2023/04/22 05:14:57;;;;;;;13.95;2.90;;;;;;;25.46;44.00;98422.00;4829899;29;20479;-66
2023/04/22 05:17:27;;;;;;;14.15;2.97;;;;;;;25.54;43.19;98425.97;4813798;29;20043;-68
2023/04/22 05:19:57;;;;;;;14.05;2.70;;;;;;;25.36;37.43;98424.06;4829407;29;20050;-65
2023/04/22 05:22:26;;;;;;;15.07;2.85;;;;;;;25.32;40.16;98432.00;4813508;29;20479;-63
2023/04/22 05:24:58;;;;;;;9.52;2.88;;;;;;;25.37;43.37;98433.81;4785393;29;20210;-64
2023/04/22 05:27:30;;;;;;;10.07;2.70;;;;;;;25.23;42.77;98441.88;4808296;29;20153;-66
2023/04/22 05:30:00;;;;;;;17.98;2.50;;;;;;;25.15;42.79;98439.84;4805311;29;20046;-62
2023/04/22 05:32:32;;;;;;;7.27;2.43;;;;;;;24.99;41.83;98428.44;4780770;29;20154;-65
2023/04/22 05:35:02;;;;;;;7.85;2.58;;;;;;;24.91;43.03;98420.16;4767639;29;20943;-60
2023/04/22 05:38:03;;;;;;;8.30;2.40;;;;;;;24.84;44.16;98425.91;4774103;29;20504;-61
2023/04/22 05:40:35;;;;;;;14.10;2.50;;;;;;;24.90;45.51;98432.91;4773798;29;20059;-57
2023/04/22 05:43:05;;;;;;;8.95;2.60;;;;;;;24.86;46.02;98442.72;4775111;29;20067;-59
2023/04/22 05:45:38;;;;;;;12.43;2.70;;;;;;;24.79;46.04;98469.31;4775543;29;20062;-59
2023/04/22 05:48:10;;;;;;;16.67;2.92;;;;;;;24.63;43.93;98470.59;4757915;29;20058;-60
2023/04/22 05:50:49;;;;;;;11.65;3.35;;;;;;;24.55;46.31;98473.94;4780017;29;20063;-61
2023/04/22 05:53:19;;;;;;;12.45;2.85;;;;;;;24.60;45.91;98461.16;4777723;29;20051;-59
2023/04/22 05:55:49;;;;;;;14.60;3.25;;;;;;;24.71;47.71;98466.44;4774734;29;20548;-60
2023/04/22 05:58:19;;;;;;;11.18;2.90;;;;;;;24.65;44.00;98451.34;4775354;29;20185;-60
2023/04/22 06:00:58;;;;;;;15.27;3.10;;;;;;;24.71;45.91;98464.53;4782945;29;20084;-61
2023/04/22 06:03:50;;;;;;;11.07;3.08;;;;;;;24.67;47.02;98449.97;4791347;29;20055;-60
2023/04/22 06:06:20;;;;;;;6.25;2.80;;;;;;;24.63;47.20;98442.69;4792132;29;20074;-64
2023/04/22 06:08:50;;;;;;;11.25;3.53;;;;;;;24.52;47.07;98447.41;4794137;29;20062;-64
2023/04/22 06:11:19;;;;;;;10.95;3.28;;;;;;;24.41;46.43;98457.59;4798817;29;20180;-62
2023/04/22 06:13:49;;;;;;;10.73;3.35;;;;;;;24.37;49.74;98453.84;4815317;29;20532;-60
2023/04/22 06:16:19;;;;;;;12.88;3.00;;;;;;;24.27;50.27;98431.47;4794739;29;20055;-61
2023/04/22 06:18:48;;;;;;;15.88;3.97;;;;;;;24.21;49.87;98419.91;4795404;29;20058;-65
2023/04/22 06:21:19;;;;;;;6.90;2.88;;;;;;;24.17;49.67;98426.97;4794002;29;20062;-63
2023/04/22 06:23:49;;;;;;;16.80;3.15;;;;;;;24.16;50.18;98428.09;4802236;29;20153;-61
2023/04/22 06:26:21;;;;;;;12.95;3.33;;;;;;;24.14;43.82;98420.22;4769680;29;20071;-62
2023/04/22 06:28:50;;;;;;;20.27;1.92;;;;;;;24.43;41.65;98422.09;4764438;29;20146;-63
2023/04/22 06:31:20;;;;;;;8.43;2.22;;;;;;;24.57;42.12;98421.09;4774870;29;20059;-68
2023/04/22 06:33:51;;;;;;;15.32;2.15;;;;;;;24.76;40.37;98423.03;4802094;29;20046;-64
2023/04/22 06:36:20;;;;;;;13.75;1.75;;;;;;;24.97;40.03;98424.38;4815665;29;20058;-66
2023/04/22 06:38:55;;;;;;;7.60;2.15;;;;;;;25.16;39.10;98414.38;4809818;29;20055;-61
2023/04/22 06:41:37;;;;;;;11.68;1.67;;;;;;;25.33;39.55;98414.63;4810557;29;20046;-64
2023/04/22 06:44:24;;;;;;;9.05;2.20;;;;;;;25.39;37.59;98415.38;4817387;29;20050;-65
2023/04/22 06:47:12;;;;;;;7.65;2.00;;;;;;;25.48;42.28;98422.53;4813528;29;20519;-60
2023/04/22 06:50:02;;;;;;;9.30;1.85;;;;;;;25.50;43.55;98408.66;4807789;29;20046;-55
2023/04/22 06:55:57;;;;;;;8.45;1.80;;;;;;;25.58;39.72;98396.38;4810338;29;20058;-60
2023/04/22 06:58:27;;;;;;;11.13;2.03;;;;;;;25.62;41.39;98395.50;4811023;29;20107;-61
2023/04/22 07:01:28;;;;;;;13.93;1.88;;;;;;;25.67;42.69;98381.03;4810777;29;20062;-60
2023/04/22 07:03:58;;;;;;;9.70;1.80;;;;;;;25.82;42.06;98372.59;4811639;29;20054;-62
2023/04/22 07:06:28;;;;;;;11.18;2.65;;;;;;;25.85;38.72;98375.53;4815142;29;20083;-58
2023/04/22 07:08:59;;;;;;;6.70;1.48;;;;;;;25.75;39.86;98372.22;4807313;29;20059;-60
2023/04/22 07:11:30;;;;;;;7.22;1.83;;;;;;;25.76;42.14;98382.75;4809947;29;20147;-61
2023/04/22 07:14:03;;;;;;;4.68;1.88;;;;;;;25.73;42.93;98380.63;4827334;29;20096;-59
2023/04/22 07:17:04;;;;;;;10.07;1.65;;;;;;;25.65;41.75;98383.22;4818008;29;20054;-61
2023/04/22 07:20:31;;;;;;;6.78;1.55;;;;;;;25.45;41.24;98377.00;4813247;29;20087;-61
2023/04/22 07:23:58;;;;;;;5.60;1.35;;;;;;;25.84;36.41;98384.78;4818358;29;20060;-62
2023/04/22 07:27:25;;;;;;;7.72;1.52;;;;;;;26.35;40.17;98378.38;4819479;29;20532;-59
2023/04/22 07:30:53;;;;;;;9.90;1.52;;;;;;;26.90;36.44;98375.63;4815994;29;20110;-59
2023/04/22 07:34:20;;;;;;;3.92;1.20;;;;;;;26.91;38.75;98366.34;4830591;29;20044;-60
2023/04/22 07:37:17;;;;;;;9.32;1.85;;;;;;;26.80;39.54;98369.25;4831759;29;20070;-62
2023/04/22 07:39:48;;;;;;;7.70;1.60;;;;;;;26.88;34.62;98361.50;4821793;29;20061;-60
2023/04/22 07:42:17;;;;;;;10.05;2.10;;;;;;;27.41;31.26;98354.25;4828571;29;20069;-61
2023/04/22 07:44:47;;;;;;;9.38;1.38;;;;;;;27.69;30.50;98350.28;4833289;29;20085;-62
2023/04/22 07:47:16;;;;;;;8.23;1.45;;;;;;;27.76;35.73;98349.03;4810306;29;20450;-60
2023/04/22 07:49:45;;;;;;;11.52;1.45;;;;;;;27.66;37.66;98355.56;4827064;29;20054;-60
2023/04/22 07:53:19;;;;;;;5.22;1.50;;;;;;;27.54;37.99;98353.41;4828669;29;20066;-66
2023/04/22 07:56:03;;;;;;;5.00;1.08;;;;;;;27.00;37.97;98353.63;4831050;29;20049;-61
2023/04/22 07:58:33;;;;;;;7.35;1.50;;;;;;;27.15;39.47;98351.34;4827056;29;20065;-61
2023/04/22 08:01:03;;;;;;;6.88;1.25;;;;;;;27.19;37.64;98346.09;4814953;29;20500;-61
2023/04/22 08:03:32;;;;;;;11.43;1.73;;;;;;;27.11;36.14;98344.94;4806969;29;20062;-62
2023/04/22 08:06:02;;;;;;;21.65;2.92;;;;;;;27.34;33.63;98347.66;4812211;29;20069;-61
2023/04/22 08:08:32;;;;;;;9.60;1.45;;;;;;;27.25;38.97;98345.66;4827702;29;20115;-61
2023/04/22 08:11:01;;;;;;;13.10;1.63;;;;;;;27.20;36.37;98334.91;4820310;29;20101;-58
2023/04/22 08:13:31;;;;;;;10.00;1.45;;;;;;;27.20;37.66;98331.38;4821574;29;20641;-59
2023/04/22 08:16:03;;;;;;;2.45;1.20;;;;;;;27.15;36.15;98328.78;4826752;29;20058;-60
2023/04/22 08:18:33;;;;;;;3.97;1.30;;;;;;;27.17;38.63;98332.78;4830327;29;20065;-62
2023/04/22 08:21:02;;;;;;;5.18;1.40;;;;;;;27.18;38.25;98328.97;4828154;29;20470;-63
2023/04/22 08:23:32;;;;;;;3.60;1.13;;;;;;;27.34;31.18;98326.69;4807277;29;20065;-60
2023/04/22 08:26:03;;;;;;;7.28;1.05;;;;;;;27.27;31.50;98321.66;4809351;29;20133;-62
2023/04/22 08:28:34;;;;;;;4.53;1.15;;;;;;;27.28;35.63;98325.19;4831876;29;20078;-61
2023/04/22 08:31:03;;;;;;;3.55;1.33;;;;;;;27.26;34.54;98324.72;4825918;29;20061;-61
2023/04/22 08:33:33;;;;;;;5.95;1.13;;;;;;;27.24;36.74;98321.50;4828070;29;20057;-64
2023/04/22 08:36:02;;;;;;;8.25;1.20;;;;;;;27.01;34.19;98317.16;4829007;29;20239;-60
2023/04/22 08:38:32;;;;;;;8.30;1.30;;;;;;;26.86;37.53;98309.41;4818184;29;20050;-61
2023/04/22 08:41:04;;;;;;;10.98;1.27;;;;;;;26.54;37.92;98303.03;4815806;29;20536;-60
2023/04/22 08:43:34;;;;;;;5.97;0.95;;;;;;;26.34;36.83;98296.13;4799396;29;20141;-62
2023/04/22 08:46:36;;;;;;;2.40;1.20;;;;;;;26.28;37.53;98301.97;4830705;29;20061;-61
2023/04/22 08:49:05;;;;;;;6.75;1.02;;;;;;;26.42;37.05;98302.75;4812493;29;20081;-60
2023/04/22 08:51:36;;;;;;;5.25;1.10;;;;;;;26.33;37.81;98291.00;4829004;29;20061;-59
2023/04/22 08:54:05;;;;;;;7.43;1.40;;;;;;;26.40;38.76;98287.84;4813799;29;20065;-60
2023/04/22 08:56:35;;;;;;;2.20;1.00;;;;;;;26.17;39.40;98281.53;4809848;29;20073;-62
2023/04/22 08:59:05;;;;;;;4.72;1.10;;;;;;;26.14;39.35;98282.94;4828199;29;20050;-62
2023/04/22 09:01:36;;;;;;;15.05;2.85;;;;;;;26.15;39.34;98275.63;4812196;29;20066;-61
2023/04/22 09:04:37;;;;;;;4.80;1.58;;;;;;;26.20;37.94;98270.88;4831742;29;20065;-61
2023/04/22 09:08:04;;;;;;;4.45;1.05;;;;;;;26.38;37.69;98265.66;4826387;29;20082;-61
2023/04/22 09:11:33;;;;;;;4.28;1.10;;;;;;;26.21;37.51;98268.97;4829125;29;20089;-62
2023/04/22 09:15:00;;;;;;;3.20;0.90;;;;;;;26.24;37.99;98262.97;4833478;29;20081;-58
2023/04/22 09:18:27;;;;;;;0.98;0.80;;;;;;;26.01;38.85;98267.50;4833634;29;20042;-60
2023/04/22 09:21:58;;;;;;;3.58;1.10;;;;;;;25.97;39.03;98260.25;4832589;29;20458;-59
2023/04/22 09:25:27;;;;;;;3.78;1.15;;;;;;;26.01;40.02;98253.91;4825719;29;20050;-59
2023/04/22 09:28:59;;;;;;;6.15;1.20;;;;;;;26.19;37.03;98247.56;4822659;29;20053;-60
2023/04/22 09:32:26;;;;;;;5.13;1.15;;;;;;;26.56;29.29;98241.03;4827499;29;20050;-58
2023/04/22 09:34:57;;;;;;;4.18;1.25;;;;;;;26.89;35.06;98238.91;4826748;29;20143;-58
2023/04/22 09:37:26;;;;;;;3.92;0.95;;;;;;;27.08;27.86;98236.81;4828141;29;20064;-59
2023/04/22 09:40:15;;;;;;;1.75;0.90;;;;;;;27.18;28.00;98231.09;4813302;29;20046;-60
2023/04/22 09:42:51;;;;;;;4.40;0.95;;;;;;;26.91;35.13;98216.88;4819343;29;20100;-58
2023/04/22 09:45:34;;;;;;;6.35;1.33;;;;;;;26.57;38.06;98230.97;4809602;29;20145;-59
2023/04/22 09:48:07;;;;;;;3.58;1.38;;;;;;;26.40;38.82;98228.91;4824712;29;20057;-60
2023/04/22 09:51:34;;;;;;;3.80;1.40;;;;;;;26.81;29.78;98224.13;4818345;29;20121;-62
2023/04/22 09:54:50;;;;;;;10.30;1.42;;;;;;;26.73;32.10;98224.06;4828364;29;20141;-64
2023/04/22 09:57:21;;;;;;;3.20;1.00;;;;;;;26.64;35.81;98218.53;4828016;29;20126;-61
2023/04/22 09:59:51;;;;;;;3.45;0.98;;;;;;;26.50;37.28;98223.25;4827155;29;20066;-62
2023/04/22 10:02:28;;;;;;;2.25;0.98;;;;;;;26.41;37.47;98216.16;4829208;29;20136;-62
2023/04/22 10:04:59;;;;;;;5.90;1.52;;;;;;;26.38;37.49;98216.78;4825645;29;20058;-60
2023/04/22 10:07:30;;;;;;;1.33;1.13;;;;;;;26.36;36.15;98211.63;4829858;29;20476;-61
2023/04/22 10:09:59;;;;;;;5.63;1.50;;;;;;;26.34;37.87;98213.84;4829830;29;20062;-66
2023/04/22 10:12:30;;;;;;;6.38;1.27;;;;;;;26.38;34.68;98205.91;4831590;29;20723;-60
2023/04/22 10:15:07;;;;;;;2.42;1.10;;;;;;;26.41;38.34;98213.44;4824638;29;20069;-66
2023/04/22 10:18:36;;;;;;;3.90;1.00;;;;;;;26.72;37.08;98201.53;4821248;29;20060;-60
2023/04/22 10:22:04;;;;;;;4.38;1.52;;;;;;;26.66;35.25;98201.94;4829048;29;20052;-61
2023/04/22 10:25:32;;;;;;;6.88;1.40;;;;;;;26.66;38.46;98207.38;4826326;29;20791;-62
2023/04/22 10:28:59;;;;;;;2.53;1.20;;;;;;;26.48;39.53;98202.94;4826051;29;20138;-61
2023/04/22 10:32:27;;;;;;;5.57;1.33;;;;;;;26.62;38.22;98190.91;4805774;29;20122;-59
2023/04/22 10:36:09;;;;;;;5.68;1.20;;;;;;;26.69;34.65;98185.81;4806517;29;20070;-65
2023/04/22 10:39:37;;;;;;;2.58;1.08;;;;;;;26.92;35.77;98183.94;4786485;29;20134;-60
2023/04/22 10:43:05;;;;;;;4.57;1.13;;;;;;;27.47;29.16;98173.47;4794344;29;20120;-59
2023/04/22 10:45:35;;;;;;;4.03;1.35;;;;;;;27.63;29.80;98176.56;4788004;29;20165;-62
2023/04/22 10:48:06;;;;;;;5.07;1.35;;;;;;;28.15;26.31;98177.47;4795309;29;20450;-64
2023/04/22 10:50:43;;;;;;;6.82;1.27;;;;;;;28.28;27.29;98173.78;4795544;29;20046;-61
2023/04/22 10:53:37;;;;;;;2.92;1.30;;;;;;;28.50;27.12;98176.34;4788858;29;20062;-66
2023/04/22 10:57:09;;;;;;;5.72;1.15;;;;;;;28.55;27.41;98169.94;4798281;29;20139;-65
2023/04/22 11:00:41;;;;;;;2.35;1.30;;;;;;;28.69;25.89;98167.03;4792994;29;20194;-63
2023/04/22 11:03:53;;;;;;;2.40;1.10;;;;;;;28.38;33.59;98173.47;4791870;29;20254;-63
2023/04/22 11:07:29;;;;;;;8.38;1.35;;;;;;;28.02;33.51;98168.31;4790588;29;20057;-64
2023/04/22 11:10:14;;;;;;;4.00;1.08;;;;;;;27.83;33.94;98161.56;4793081;29;20215;-60
2023/04/22 11:12:44;;;;;;;1.77;1.10;;;;;;;27.63;35.39;98158.31;4784225;29;20051;-65
2023/04/22 11:15:19;;;;;;;3.28;1.38;;;;;;;27.43;32.58;98169.78;4793095;29;20047;-63
2023/04/22 11:17:52;;;;;;;3.47;1.00;;;;;;;27.41;31.32;98163.84;4794125;29;20387;-64
2023/04/22 11:20:22;;;;;;;4.05;1.35;;;;;;;27.51;33.86;98158.16;4793203;29;20062;-63
2023/04/22 11:23:51;;;;;;;3.42;0.93;;;;;;;27.26;32.40;98167.00;4789209;29;20051;-61
2023/04/22 11:26:34;;;;;;;4.10;1.10;;;;;;;27.25;35.01;98159.94;4798180;29;20061;-64
2023/04/22 11:29:04;;;;;;;3.67;1.10;;;;;;;27.13;34.05;98171.41;4797641;29;20434;-61
2023/04/22 11:31:35;;;;;;;2.05;0.90;;;;;;;27.01;30.88;98152.16;4798332;29;20072;-64
2023/04/22 11:34:07;;;;;;;6.22;1.13;;;;;;;26.97;36.05;98161.25;4799256;29;20535;-62
2023/04/22 11:36:37;;;;;;;1.70;1.05;;;;;;;26.85;34.69;98164.56;4813800;29;20066;-62
2023/04/22 11:39:10;;;;;;;6.72;1.00;;;;;;;26.73;36.12;98161.59;4809670;29;20055;-63
2023/04/22 11:41:41;;;;;;;2.95;1.20;;;;;;;26.70;36.46;98159.47;4806498;29;20050;-61
2023/04/22 11:44:14;;;;;;;2.13;1.02;;;;;;;26.89;29.95;98162.81;4817989;29;20062;-66
2023/04/22 11:46:44;;;;;;;1.58;0.88;;;;;;;27.17;28.93;98158.00;4803665;29;20078;-61
2023/04/22 11:49:16;;;;;;;1.77;0.75;;;;;;;27.36;30.45;98160.44;4799629;29;20062;-62
2023/04/22 11:51:53;;;;;;;1.33;0.82;;;;;;;27.38;30.68;98164.47;4805829;29;20064;-62
2023/04/22 11:54:37;;;;;;;2.13;0.80;;;;;;;27.39;29.76;98166.09;4814838;29;20062;-62
2023/04/22 11:58:37;;;;;;;1.25;0.88;;;;;;;27.51;29.17;98157.34;4817110;29;20064;-62
2023/04/22 12:01:14;;;;;;;2.33;1.05;;;;;;;27.52;30.10;98159.75;4798381;29;20687;-62
2023/04/22 12:03:43;;;;;;;4.22;1.30;;;;;;;27.36;31.79;98155.00;4817260;29;20046;-63
2023/04/22 12:06:15;;;;;;;4.30;0.80;;;;;;;27.15;34.30;98157.50;4818026;29;20065;-62
2023/04/22 12:08:46;;;;;;;3.75;0.98;;;;;;;26.96;35.19;98159.63;4818448;29;20050;-63
2023/04/22 12:11:15;;;;;;;5.28;1.02;;;;;;;26.75;35.72;98160.13;4817967;29;20051;-61
2023/04/22 12:13:45;;;;;;;4.60;1.30;;;;;;;26.57;35.93;98153.00;4817754;29;20490;-63
2023/04/22 12:16:17;;;;;;;1.30;0.82;;;;;;;26.50;34.79;98155.34;4801640;29;20442;-62
2023/04/22 12:18:47;;;;;;;2.30;1.10;;;;;;;26.41;36.16;98159.13;4817936;29;20054;-64
2023/04/22 12:21:22;;;;;;;1.17;0.77;;;;;;;26.32;36.30;98159.06;4831666;29;20472;-60
2023/04/22 12:23:55;;;;;;;1.77;0.80;;;;;;;26.21;36.08;98147.63;4817248;29;20054;-63
2023/04/22 12:26:28;;;;;;;3.00;1.17;;;;;;;26.16;35.50;98149.63;4816351;29;20050;-62
2023/04/22 12:28:59;;;;;;;2.28;1.00;;;;;;;26.04;36.45;98152.06;4816970;29;20061;-60
2023/04/22 12:31:28;;;;;;;2.28;0.88;;;;;;;25.97;35.84;98155.22;4816735;29;20132;-62
2023/04/22 12:33:59;;;;;;;2.55;1.00;;;;;;;25.90;37.04;98155.63;4817719;29;20062;-62
2023/04/22 12:36:31;;;;;;;4.05;1.67;;;;;;;25.85;34.70;98155.72;4815292;29;20050;-62
2023/04/22 12:39:00;;;;;;;5.03;3.17;;;;;;;25.90;35.54;98162.97;4816771;29;20077;-61
2023/04/22 12:41:30;;;;;;;6.72;2.60;;;;;;;25.87;36.44;98169.00;4828668;29;20130;-61
2023/04/22 12:43:59;;;;;;;2.33;1.67;;;;;;;25.83;36.20;98160.69;4817517;29;20500;-62
2023/04/22 12:46:29;;;;;;;6.43;1.50;;;;;;;25.71;35.99;98160.38;4817028;29;20054;-62
2023/04/22 12:48:58;;;;;;;2.75;1.15;;;;;;;25.68;36.87;98160.19;4817166;29;20547;-62
2023/04/22 12:51:28;;;;;;;2.70;1.17;;;;;;;25.48;39.67;98159.50;4817574;29;20055;-64
2023/04/22 12:53:57;;;;;;;3.28;1.45;;;;;;;25.37;37.94;98160.78;4817307;29;20512;-62